Дальние Игуменки

Карта отелей и гостиниц, располагающихся рядом с аэропортом Дальние Игуменки :



Дальние Игуменки Белгородская область 50° 40' 12.2412" N, 36° 43' 38.3988" E

Дальние Игуменки Белгородская область 50° 40' 12.2412" N, 36° 43' 38.3988" E
Код аэродрома ИКАО: 
H116
Код аэродрома RU: 
Х116
Координаты: 
N50.67007° E036.72733°
Превышение над уровнем моря : 
235
Основная полоса: 
Курс магнитный: 
Длина основной ВПП: 
Ширина основной ВПП: 
Покрытие основной ВПП: 
Тип: 
Вертодром
Освещение ВПП: 
Класс аэродрома: 
Статус: 
Недействующий
Принадлежность: 
Сайт: 
E-mail аэродрома: 
Страна: 
Россия
Регион: 
Белгородская область
Город: 
Дополнительная информация: 

Найти трансфер

С помощью этой формы Вы можете найти трансфер из аэропорта Дальние Игуменки в город, аэропорт или вокзал:

Карта места

Javascript is required to view this map.

Погода в аэропортах:

Авиационная погода в Чебоксарах

Регион: 
Погода METAR: 
UWKS 042300Z 21003MPS 4000 BR OVC007 15/14 Q1012 R06/010060 TEMPO 1000 BR OVC005 RMK QFE744
Время наблюдения: 
2020-06-04T23:00:00Z
Температура C: 
15.0
Точка росы: 
14.0
Направление ветра: 
210
Скорость ветра: 
6
Метеорологическая видимость: 
2.49
Явления погоды: 
BR
Условия полета: 
IFR
Аэропорт подробнее: 

Авиационная погода в Витебске

Регион: 
Погода METAR: 
UMII 041400Z 29003MPS 7000 -SHRA BKN017CB 15/14 Q1002 TEMPO 2000 TSRA BKN005
Время наблюдения: 
2020-06-04T14:00:00Z
Температура C: 
15.0
Точка росы: 
14.0
Направление ветра: 
290
Скорость ветра: 
6
Метеорологическая видимость: 
4.35
Явления погоды: 
-SHRA
Условия полета: 
MVFR

Авиационная погода в Минеральные Воды

Регион: 
Погода METAR: 
URMM 042300Z 27006MPS 9999 -TSRA BKN057CB 16/13 Q1017 R12/090070 TEMPO 1000 TSRAGR BKN003 BKN020CB RMK QFE734/0979
Время наблюдения: 
2020-06-04T23:00:00Z
Температура C: 
16.0
Точка росы: 
13.0
Направление ветра: 
270
Скорость ветра: 
12
Метеорологическая видимость: 
6.21
Явления погоды: 
-TSRA
Условия полета: 
VFR
Аэропорт подробнее: 

Авиационная погода в Лаппеэнранта

Регион: 
Погода METAR: 
EFLP 042250Z AUTO 08007KT 9000 -RA OVC004 12/11 Q0997
Время наблюдения: 
2020-06-04T22:50:00Z
Температура C: 
12.0
Точка росы: 
11.0
Направление ветра: 
80
Скорость ветра: 
7
Метеорологическая видимость: 
5.59
Явления погоды: 
-RA
Условия полета: 
LIFR